Time;durP1;ratioP1;P1;durP2;ratioP2;P2;SDS_P1;SDS_P2;PMS_P1;PMS_P2;Temp;Humidity;BMP_temperature;BMP_pressure;BME280_temperature;BME280_humidity;BME280_pressure;Samples;Min_cycle;Max_cycle;Signal;HPM_P1;HPM_P2
2022/07/16 00:03:40;;;;;;;;;;;;;;;12.66;60.28;100615.88;105894;1270;22636;-54
2022/07/16 00:06:07;;;;;;;;;;;;;;;12.65;60.34;100618.88;106038;1270;22554;-54
2022/07/16 00:08:35;;;;;;;;;;;;;;;12.65;60.44;100621.94;105717;1270;25527;-55
2022/07/16 00:11:03;;;;;;;;;;;;;;;12.64;60.41;100626.85;105738;1271;24316;-56
2022/07/16 00:13:30;;;;;;;;;;;;;;;12.64;60.58;100625.16;105809;1270;22537;-53
2022/07/16 00:15:59;;;;;;;;;;;;;;;12.63;60.57;100623.95;105748;1270;25548;-52
2022/07/16 00:21:13;;;;;;;;;;;;;;;12.60;60.64;100616.45;105624;1270;22569;-53
2022/07/16 00:23:41;;;;;;;;;;;;;;;12.58;60.76;100617.75;105693;1270;22686;-55
2022/07/16 00:26:09;;;;;;;;;;;;;;;12.57;60.82;100618.44;105698;1270;23953;-55
2022/07/16 00:28:37;;;;;;;;;;;;;;;12.56;60.94;100617.88;105965;1270;26132;-54
2022/07/16 00:31:05;;;;;;;;;;;;;;;12.54;60.93;100611.81;105687;1270;22563;-51
2022/07/16 00:33:32;;;;;;;;;;;;;;;12.52;61.01;100614.33;105815;1270;25388;-54
2022/07/16 00:36:00;;;;;;;;;;;;;;;12.51;61.00;100613.44;106481;1261;25355;-64
2022/07/16 00:38:28;;;;;;;;;;;;;;;12.49;61.11;100605.41;105980;1270;24292;-65
2022/07/16 00:40:56;;;;;;;;;;;;;;;12.47;61.15;100599.17;105963;1271;22557;-66
2022/07/16 00:43:23;;;;;;;;;;;;;;;12.45;61.28;100601.36;105844;1270;25466;-65
2022/07/16 00:45:51;;;;;;;;;;;;;;;12.42;61.25;100604.48;106017;1270;25655;-65
2022/07/16 00:48:19;;;;;;;;;;;;;;;12.40;61.46;100605.11;106115;1270;25368;-65
2022/07/16 00:50:46;;;;;;;;;;;;;;;12.37;61.46;100604.10;105908;1270;25474;-64
2022/07/16 00:53:14;;;;;;;;;;;;;;;12.37;61.55;100602.88;105977;1270;26495;-64
2022/07/16 00:55:42;;;;;;;;;;;;;;;12.35;61.65;100599.21;106057;1270;25331;-65
2022/07/16 00:58:11;;;;;;;;;;;;;;;12.33;61.63;100602.99;106155;1270;24432;-65
2022/07/16 01:00:39;;;;;;;;;;;;;;;12.32;61.87;100599.77;106022;1270;22516;-65
2022/07/16 01:03:08;;;;;;;;;;;;;;;12.30;61.78;100604.45;105951;1270;22548;-64
2022/07/16 01:05:36;;;;;;;;;;;;;;;12.27;62.02;100601.65;105926;1270;22517;-64
2022/07/16 01:08:05;;;;;;;;;;;;;;;12.25;61.88;100601.92;106155;1270;22549;-65
2022/07/16 01:10:33;;;;;;;;;;;;;;;12.22;62.06;100601.16;106131;1270;25278;-64
2022/07/16 01:13:01;;;;;;;;;;;;;;;12.21;62.26;100598.05;106120;1270;25475;-65
2022/07/16 01:15:28;;;;;;;;;;;;;;;12.19;62.21;100594.30;106098;1270;25608;-65
2022/07/16 01:17:56;;;;;;;;;;;;;;;12.17;62.25;100599.42;105935;1270;22509;-65
2022/07/16 01:20:24;;;;;;;;;;;;;;;12.16;62.45;100596.14;105961;1270;23076;-65
2022/07/16 01:22:53;;;;;;;;;;;;;;;12.15;62.43;100596.33;106241;1270;25788;-65
2022/07/16 01:25:21;;;;;;;;;;;;;;;12.14;62.61;100595.44;106039;1270;22562;-65
2022/07/16 01:27:49;;;;;;;;;;;;;;;12.12;62.63;100595.95;106279;1270;22539;-65
2022/07/16 01:30:17;;;;;;;;;;;;;;;12.10;62.90;100594.13;106134;1269;24500;-65
2022/07/16 01:32:45;;;;;;;;;;;;;;;12.09;62.75;100591.31;106152;1270;22512;-64
2022/07/16 01:35:14;;;;;;;;;;;;;;;12.06;62.86;100586.28;106033;1270;22513;-65
2022/07/16 01:37:42;;;;;;;;;;;;;;;12.03;62.98;100582.83;106014;1270;24421;-65
2022/07/16 01:40:10;;;;;;;;;;;;;;;12.01;63.20;100579.98;106030;1270;25371;-64
2022/07/16 01:42:38;;;;;;;;;;;;;;;11.98;63.24;100581.14;106134;1270;25476;-65
2022/07/16 01:45:06;;;;;;;;;;;;;;;11.94;63.47;100577.96;105971;1270;25777;-64
2022/07/16 01:47:34;;;;;;;;;;;;;;;11.91;63.49;100575.42;106040;1270;22625;-65
2022/07/16 01:50:02;;;;;;;;;;;;;;;11.88;63.69;100576.59;106000;1269;25323;-64
2022/07/16 01:52:30;;;;;;;;;;;;;;;11.86;63.76;100571.66;105967;1270;24257;-65
2022/07/16 01:54:58;;;;;;;;;;;;;;;11.85;63.66;100576.69;105955;1270;22520;-64
2022/07/16 01:57:25;;;;;;;;;;;;;;;11.85;63.79;100574.35;105848;1270;22701;-64
2022/07/16 01:59:53;;;;;;;;;;;;;;;11.84;64.09;100573.92;105719;1270;22538;-65
2022/07/16 02:02:21;;;;;;;;;;;;;;;11.84;64.12;100572.64;105958;1270;24424;-64
2022/07/16 02:04:48;;;;;;;;;;;;;;;11.84;64.29;100572.73;106090;1270;22519;-65
2022/07/16 02:07:16;;;;;;;;;;;;;;;11.84;64.32;100567.65;105968;1270;24280;-64
2022/07/16 02:09:43;;;;;;;;;;;;;;;11.83;64.41;100566.47;106017;1270;24227;-64
2022/07/16 02:12:11;;;;;;;;;;;;;;;11.82;64.65;100562.13;106084;1270;25264;-65
2022/07/16 02:14:38;;;;;;;;;;;;;;;11.81;64.80;100561.55;105980;1270;25361;-65
2022/07/16 02:17:06;;;;;;;;;;;;;;;11.80;65.04;100555.38;105943;1270;22977;-65
2022/07/16 02:19:34;;;;;;;;;;;;;;;11.80;65.22;100556.17;106142;1270;22531;-65
2022/07/16 02:22:02;;;;;;;;;;;;;;;11.79;65.24;100553.52;106071;1270;22540;-65
2022/07/16 02:24:29;;;;;;;;;;;;;;;11.79;65.34;100554.02;106017;1270;25239;-64
2022/07/16 02:26:57;;;;;;;;;;;;;;;11.77;65.41;100554.70;106056;1270;23640;-64
2022/07/16 02:29:24;;;;;;;;;;;;;;;11.77;65.36;100555.15;105908;1270;22513;-64
2022/07/16 02:31:52;;;;;;;;;;;;;;;11.76;65.50;100556.77;105882;1270;22595;-64
2022/07/16 02:34:19;;;;;;;;;;;;;;;11.75;65.43;100551.91;106040;1270;22535;-65
2022/07/16 02:36:47;;;;;;;;;;;;;;;11.74;65.36;100548.54;106129;1270;22532;-64
2022/07/16 02:39:15;;;;;;;;;;;;;;;11.73;65.46;100551.98;106018;1270;22662;-64
2022/07/16 02:41:45;;;;;;;;;;;;;;;11.74;65.59;100552.45;106030;1270;23312;-65
2022/07/16 02:44:13;;;;;;;;;;;;;;;11.73;65.63;100545.92;105939;1270;25581;-64
2022/07/16 02:46:41;;;;;;;;;;;;;;;11.72;65.71;100549.25;106027;1270;23927;-66
2022/07/16 02:49:08;;;;;;;;;;;;;;;11.71;65.85;100546.09;105805;1270;22528;-64
2022/07/16 02:51:36;;;;;;;;;;;;;;;11.72;65.78;100549.67;105960;1270;22603;-64
2022/07/16 02:54:04;;;;;;;;;;;;;;;11.72;66.01;100543.60;106095;1270;24895;-64
2022/07/16 02:56:32;;;;;;;;;;;;;;;11.71;66.16;100540.95;105965;1270;22544;-65
2022/07/16 02:59:00;;;;;;;;;;;;;;;11.71;66.07;100538.41;106140;1270;22734;-65
2022/07/16 03:01:27;;;;;;;;;;;;;;;11.70;66.44;100538.34;105879;1270;24242;-65
2022/07/16 03:03:55;;;;;;;;;;;;;;;11.71;66.47;100534.85;106036;1271;24498;-64
2022/07/16 03:06:26;;;;;;;;;;;;;;;11.71;66.58;100532.73;106051;1270;25268;-64
2022/07/16 03:08:53;;;;;;;;;;;;;;;11.73;66.52;100533.33;105914;1270;25310;-64
2022/07/16 03:11:22;;;;;;;;;;;;;;;11.74;66.57;100535.66;106062;1270;22523;-65
2022/07/16 03:13:49;;;;;;;;;;;;;;;11.75;66.67;100531.27;106050;1270;24319;-64
2022/07/16 03:16:17;;;;;;;;;;;;;;;11.76;66.77;100528.84;106009;1270;22538;-65
2022/07/16 03:18:45;;;;;;;;;;;;;;;11.77;66.87;100529.82;105907;1270;24294;-63
2022/07/16 03:21:13;;;;;;;;;;;;;;;11.77;66.86;100526.11;106090;1270;25356;-65
2022/07/16 03:23:41;;;;;;;;;;;;;;;11.77;66.80;100526.27;106108;1270;24447;-64
2022/07/16 03:26:09;;;;;;;;;;;;;;;11.77;66.99;100527.23;106006;1270;24160;-65
2022/07/16 03:28:37;;;;;;;;;;;;;;;11.77;67.08;100528.81;106203;1271;22640;-64
2022/07/16 03:31:05;;;;;;;;;;;;;;;11.78;67.14;100528.85;106055;1270;25759;-65
2022/07/16 03:33:33;;;;;;;;;;;;;;;11.80;67.24;100532.38;106055;1269;25359;-65
2022/07/16 03:36:00;;;;;;;;;;;;;;;11.81;67.12;100532.30;106045;1270;22540;-64
2022/07/16 03:41:14;;;;;;;;;;;;;;;11.86;67.06;100528.85;105946;1270;23939;-64
2022/07/16 03:43:41;;;;;;;;;;;;;;;11.89;66.97;100532.85;105943;1270;22518;-64
2022/07/16 03:46:12;;;;;;;;;;;;;;;11.91;67.00;100533.70;101695;1270;5431529;-64
2022/07/16 03:48:41;;;;;;;;;;;;;;;11.93;66.89;100532.94;106009;1270;22623;-64
2022/07/16 03:51:10;;;;;;;;;;;;;;;11.96;67.00;100539.59;105651;1270;25489;-64
2022/07/16 03:53:38;;;;;;;;;;;;;;;11.99;66.79;100532.52;105872;1270;23099;-64
2022/07/16 03:56:07;;;;;;;;;;;;;;;12.02;66.92;100528.67;106085;1270;24269;-65
2022/07/16 03:58:35;;;;;;;;;;;;;;;12.05;66.81;100527.71;105986;1270;22531;-64
2022/07/16 04:01:03;;;;;;;;;;;;;;;12.07;66.88;100528.40;106000;1270;25310;-65
2022/07/16 04:03:32;;;;;;;;;;;;;;;12.10;66.91;100532.27;106184;1270;25430;-64
2022/07/16 04:06:00;;;;;;;;;;;;;;;12.13;66.85;100536.95;106108;1270;24220;-64
2022/07/16 04:08:27;;;;;;;;;;;;;;;12.17;66.82;100538.14;105938;1270;23037;-64
2022/07/16 04:10:55;;;;;;;;;;;;;;;12.19;66.92;100540.56;105926;1270;22591;-64
2022/07/16 04:13:23;;;;;;;;;;;;;;;12.21;66.93;100541.36;106044;1270;22617;-64
2022/07/16 04:15:51;;;;;;;;;;;;;;;12.22;66.72;100541.44;106025;1270;23104;-64
2022/07/16 04:18:19;;;;;;;;;;;;;;;12.25;66.91;100540.30;106168;1271;22532;-65
2022/07/16 04:20:47;;;;;;;;;;;;;;;12.28;66.75;100537.10;106111;1270;23007;-65
2022/07/16 04:23:15;;;;;;;;;;;;;;;12.30;66.55;100538.35;106046;1270;25360;-64
2022/07/16 04:25:43;;;;;;;;;;;;;;;12.33;66.68;100534.38;106062;1270;22515;-64
2022/07/16 04:28:11;;;;;;;;;;;;;;;12.36;66.89;100530.92;106020;1270;24441;-65
2022/07/16 04:30:39;;;;;;;;;;;;;;;12.40;66.61;100526.50;105986;1270;22520;-66
2022/07/16 04:33:06;;;;;;;;;;;;;;;12.43;66.33;100525.08;106185;1270;26149;-64
2022/07/16 04:35:34;;;;;;;;;;;;;;;12.45;66.56;100522.81;106006;1270;25420;-64
2022/07/16 04:38:01;;;;;;;;;;;;;;;12.46;66.50;100519.84;106031;1270;22600;-64
2022/07/16 04:40:29;;;;;;;;;;;;;;;12.51;66.62;100522.96;106111;1270;22547;-64
2022/07/16 04:42:57;;;;;;;;;;;;;;;12.55;66.56;100524.15;106052;1270;22754;-64
2022/07/16 04:45:25;;;;;;;;;;;;;;;12.58;66.55;100526.59;106162;1270;22917;-65
2022/07/16 04:47:53;;;;;;;;;;;;;;;12.62;66.44;100527.52;106147;1270;22966;-65
2022/07/16 04:50:20;;;;;;;;;;;;;;;12.67;66.63;100524.58;105984;1270;25487;-65
2022/07/16 04:52:48;;;;;;;;;;;;;;;12.72;66.45;100523.08;106055;1268;24329;-64
2022/07/16 04:55:16;;;;;;;;;;;;;;;12.77;66.32;100522.54;106046;1270;24231;-64
2022/07/16 04:57:43;;;;;;;;;;;;;;;12.83;66.34;100521.31;106067;1270;25299;-64
2022/07/16 05:00:12;;;;;;;;;;;;;;;12.90;66.20;100521.27;106071;1271;22541;-65
2022/07/16 05:02:58;;;;;;;;;;;;;;;12.96;66.30;100517.30;105997;1270;22543;-65
2022/07/16 05:05:26;;;;;;;;;;;;;;;13.02;66.28;100520.61;106067;1270;22688;-65
2022/07/16 05:07:54;;;;;;;;;;;;;;;13.09;66.32;100517.14;106225;1270;25299;-64
2022/07/16 05:10:24;;;;;;;;;;;;;;;13.17;66.30;100518.27;106114;1270;22561;-65
2022/07/16 05:12:51;;;;;;;;;;;;;;;13.24;66.06;100517.60;105914;1270;22515;-64
2022/07/16 05:15:19;;;;;;;;;;;;;;;13.30;65.70;100520.70;106091;1270;22518;-64
2022/07/16 05:17:47;;;;;;;;;;;;;;;13.38;65.94;100520.78;106096;1270;25263;-64
2022/07/16 05:20:15;;;;;;;;;;;;;;;13.46;66.20;100519.20;106106;1270;25395;-65
2022/07/16 05:22:43;;;;;;;;;;;;;;;13.55;65.92;100515.33;106165;1270;24268;-65
2022/07/16 05:25:12;;;;;;;;;;;;;;;13.62;65.70;100514.64;106048;1270;24306;-65
2022/07/16 05:27:39;;;;;;;;;;;;;;;13.69;65.44;100513.33;106250;1270;24230;-64
2022/07/16 05:30:09;;;;;;;;;;;;;;;13.77;65.43;100515.55;106012;1271;25078;-65
2022/07/16 05:32:37;;;;;;;;;;;;;;;13.86;65.49;100512.45;105998;1270;23050;-64
2022/07/16 05:35:06;;;;;;;;;;;;;;;13.95;65.20;100510.95;106132;1270;24603;-65
2022/07/16 05:37:34;;;;;;;;;;;;;;;14.04;65.03;100508.27;106189;1270;22516;-65
2022/07/16 05:40:02;;;;;;;;;;;;;;;14.13;65.03;100502.89;106147;1270;24434;-65
2022/07/16 05:42:30;;;;;;;;;;;;;;;14.24;65.05;100499.33;106111;1270;26518;-65
2022/07/16 05:44:58;;;;;;;;;;;;;;;14.37;64.85;100498.08;106176;1270;25401;-66
2022/07/16 05:47:25;;;;;;;;;;;;;;;14.50;64.67;100495.46;106157;1270;22557;-65
2022/07/16 05:49:53;;;;;;;;;;;;;;;14.64;64.12;100496.92;105956;1270;23180;-65
2022/07/16 05:52:21;;;;;;;;;;;;;;;14.77;63.84;100495.59;105993;1270;26585;-65
2022/07/16 05:54:48;;;;;;;;;;;;;;;14.89;63.20;100497.80;105867;1270;25327;-65
2022/07/16 05:57:16;;;;;;;;;;;;;;;15.00;63.10;100497.87;105905;1270;22531;-65
2022/07/16 05:59:44;;;;;;;;;;;;;;;15.10;63.05;100499.60;106036;1270;24219;-65
2022/07/16 06:02:12;;;;;;;;;;;;;;;15.20;62.78;100492.95;106252;1270;23932;-65
2022/07/16 06:04:39;;;;;;;;;;;;;;;15.29;62.37;100495.45;106279;1270;25303;-65
2022/07/16 06:07:07;;;;;;;;;;;;;;;15.37;62.06;100495.16;106027;1270;24926;-66
2022/07/16 06:09:37;;;;;;;;;;;;;;;15.45;61.43;100492.10;106184;1270;26552;-66
2022/07/16 06:12:06;;;;;;;;;;;;;;;15.52;61.59;100498.26;106188;1271;22672;-66
2022/07/16 06:14:33;;;;;;;;;;;;;;;15.60;61.31;100492.70;106183;1270;22529;-65
2022/07/16 06:17:01;;;;;;;;;;;;;;;15.69;60.99;100492.57;106329;1270;22519;-66
2022/07/16 06:19:29;;;;;;;;;;;;;;;15.77;60.57;100485.32;106337;1270;22688;-65
2022/07/16 06:21:57;;;;;;;;;;;;;;;15.85;60.52;100486.77;106073;1270;25358;-66
2022/07/16 06:24:25;;;;;;;;;;;;;;;15.94;60.41;100488.57;105913;1270;25372;-65
2022/07/16 06:26:52;;;;;;;;;;;;;;;16.05;60.22;100487.00;105866;1270;22547;-66
2022/07/16 06:29:20;;;;;;;;;;;;;;;16.18;59.92;100486.08;106072;1270;22615;-66
2022/07/16 06:31:48;;;;;;;;;;;;;;;16.35;59.65;100484.91;106155;1270;26523;-66
2022/07/16 06:34:16;;;;;;;;;;;;;;;16.52;59.14;100482.30;106171;1271;22543;-66
2022/07/16 06:36:44;;;;;;;;;;;;;;;16.70;58.58;100478.48;106246;1270;25381;-66
2022/07/16 06:39:12;;;;;;;;;;;;;;;16.86;58.18;100477.26;106213;1270;22537;-66
2022/07/16 06:41:40;;;;;;;;;;;;;;;17.00;57.42;100474.40;106119;1270;22525;-65
2022/07/16 06:44:09;;;;;;;;;;;;;;;17.13;57.31;100476.14;106219;1270;25350;-65
2022/07/16 06:46:37;;;;;;;;;;;;;;;17.26;57.28;100473.02;106114;1270;22685;-67
2022/07/16 06:49:05;;;;;;;;;;;;;;;17.37;56.73;100470.45;105973;1270;24238;-67
2022/07/16 06:51:33;;;;;;;;;;;;;;;17.46;56.67;100467.80;105982;1270;25207;-67
2022/07/16 06:54:01;;;;;;;;;;;;;;;17.62;56.67;100466.69;105663;1270;25306;-66
2022/07/16 06:56:32;;;;;;;;;;;;;;;17.79;56.29;100466.73;106035;1270;22679;-67
2022/07/16 06:59:01;;;;;;;;;;;;;;;17.93;55.55;100465.98;106142;1270;22538;-68
2022/07/16 07:01:32;;;;;;;;;;;;;;;18.01;55.18;100461.54;106736;1270;25365;-66
2022/07/16 07:04:02;;;;;;;;;;;;;;;18.07;54.56;100463.20;105984;1270;25431;-67
2022/07/16 07:06:31;;;;;;;;;;;;;;;18.08;53.83;100459.29;106166;1271;22527;-66
2022/07/16 07:09:00;;;;;;;;;;;;;;;18.11;53.98;100454.53;106311;1270;25316;-66
2022/07/16 07:11:30;;;;;;;;;;;;;;;18.18;53.59;100454.06;106242;1270;22588;-66
2022/07/16 07:13:59;;;;;;;;;;;;;;;18.28;53.52;100452.53;106624;1270;25454;-67
2022/07/16 07:16:27;;;;;;;;;;;;;;;18.42;53.02;100447.33;106313;1270;22760;-65
2022/07/16 07:18:55;;;;;;;;;;;;;;;18.56;52.31;100444.79;106478;1270;25266;-66
2022/07/16 07:21:23;;;;;;;;;;;;;;;18.71;51.48;100440.15;106876;1264;24303;-55
2022/07/16 07:23:51;;;;;;;;;;;;;;;18.90;51.59;100439.13;105312;1273;22698;-52
2022/07/16 07:26:19;;;;;;;;;;;;;;;19.05;51.13;100436.16;108617;1273;22716;-52
2022/07/16 07:28:48;;;;;;;;;;;;;;;19.14;50.77;100436.93;105610;1273;25203;-54
2022/07/16 07:31:16;;;;;;;;;;;;;;;19.22;50.44;100436.15;105665;1273;23002;-54
2022/07/16 07:33:43;;;;;;;;;;;;;;;19.29;50.02;100433.48;105573;1273;24388;-53
2022/07/16 07:36:11;;;;;;;;;;;;;;;19.36;49.65;100431.07;105671;1273;24419;-52
2022/07/16 07:38:38;;;;;;;;;;;;;;;19.39;49.03;100432.40;105616;1273;25221;-53
2022/07/16 07:41:07;;;;;;;;;;;;;;;19.42;49.00;100428.77;105711;1273;22635;-55
2022/07/16 07:43:34;;;;;;;;;;;;;;;19.44;48.44;100430.90;106603;1273;26294;-52
2022/07/16 07:46:02;;;;;;;;;;;;;;;19.43;48.31;100429.09;105593;1273;22519;-54
2022/07/16 07:48:30;;;;;;;;;;;;;;;19.46;48.22;100428.32;105569;1273;22532;-54
2022/07/16 07:50:58;;;;;;;;;;;;;;;19.51;47.75;100433.15;105556;1274;22524;-52
2022/07/16 07:53:25;;;;;;;;;;;;;;;19.54;47.03;100426.17;105794;1273;22711;-54
2022/07/16 07:55:53;;;;;;;;;;;;;;;19.54;46.84;100431.57;105726;1273;22683;-54
2022/07/16 07:58:21;;;;;;;;;;;;;;;19.56;46.77;100430.71;105667;1273;22539;-54
2022/07/16 08:00:48;;;;;;;;;;;;;;;19.59;46.73;100426.03;105658;1273;25394;-55
2022/07/16 08:03:16;;;;;;;;;;;;;;;19.62;46.62;100419.87;105593;1273;25230;-52
2022/07/16 08:05:45;;;;;;;;;;;;;;;19.63;46.12;100416.24;105726;1273;22531;-52
2022/07/16 08:08:13;;;;;;;;;;;;;;;19.64;46.25;100416.79;107258;1272;25348;-55
2022/07/16 08:10:40;;;;;;;;;;;;;;;19.68;46.35;100410.80;105749;1273;24249;-52
2022/07/16 08:13:09;;;;;;;;;;;;;;;19.72;46.09;100416.17;105654;1271;22522;-52
2022/07/16 08:15:37;;;;;;;;;;;;;;;19.74;45.47;100413.34;105694;1273;22820;-50
2022/07/16 08:18:04;;;;;;;;;;;;;;;19.74;45.30;100416.48;105728;1273;26010;-50
2022/07/16 08:20:32;;;;;;;;;;;;;;;19.73;45.06;100414.55;105926;1273;24284;-52
2022/07/16 08:23:00;;;;;;;;;;;;;;;19.74;45.03;100412.58;105737;1273;26542;-54
2022/07/16 08:25:46;;;;;;;;;;;;;;;19.77;45.19;100413.14;105697;1272;24388;-55
2022/07/16 08:28:15;;;;;;;;;;;;;;;19.84;44.75;100405.45;105735;1273;24284;-53
2022/07/16 08:30:43;;;;;;;;;;;;;;;19.90;44.82;100402.41;105842;1273;25216;-54
2022/07/16 08:33:11;;;;;;;;;;;;;;;19.98;44.98;100395.08;105792;1273;22638;-55
2022/07/16 08:35:38;;;;;;;;;;;;;;;20.08;44.93;100396.51;105801;1273;24308;-53
2022/07/16 08:38:07;;;;;;;;;;;;;;;20.22;44.88;100399.79;105684;1273;22561;-53
2022/07/16 08:40:35;;;;;;;;;;;;;;;20.34;44.42;100394.18;106024;1273;25490;-53
2022/07/16 08:43:04;;;;;;;;;;;;;;;20.41;43.70;100391.61;105949;1273;26596;-51
2022/07/16 08:45:32;;;;;;;;;;;;;;;20.48;43.82;100397.36;105720;1273;22678;-52
2022/07/16 08:48:00;;;;;;;;;;;;;;;20.53;43.35;100402.06;105547;1273;22579;-53
2022/07/16 08:50:29;;;;;;;;;;;;;;;20.52;43.30;100397.48;107181;1274;22543;-51
2022/07/16 08:53:00;;;;;;;;;;;;;;;20.57;43.31;100400.95;105574;1273;22611;-50
2022/07/16 08:55:29;;;;;;;;;;;;;;;20.62;43.03;100398.59;105732;1273;22535;-53
2022/07/16 08:57:57;;;;;;;;;;;;;;;20.65;42.40;100400.63;105855;1273;22599;-55
2022/07/16 09:00:25;;;;;;;;;;;;;;;20.67;42.38;100395.25;105809;1271;22515;-51
2022/07/16 09:02:53;;;;;;;;;;;;;;;20.68;42.40;100393.94;108497;1272;22611;-53
2022/07/16 09:05:21;;;;;;;;;;;;;;;20.69;42.44;100393.52;105882;1273;24429;-51
2022/07/16 09:07:49;;;;;;;;;;;;;;;20.70;41.87;100393.32;105883;1273;25210;-52
2022/07/16 09:10:17;;;;;;;;;;;;;;;20.70;41.81;100389.92;105799;1273;25321;-54
2022/07/16 09:12:45;;;;;;;;;;;;;;;20.69;42.04;100385.71;105747;1273;22651;-51
2022/07/16 09:15:24;;;;;;;;;;;;;;;20.73;42.17;100387.38;105838;1273;25357;-54
2022/07/16 09:18:08;;;;;;;;;;;;;;;20.80;42.21;100384.35;107799;1272;22573;-53
2022/07/16 09:20:36;;;;;;;;;;;;;;;20.88;41.87;100384.35;106442;1273;24228;-50
2022/07/16 09:23:04;;;;;;;;;;;;;;;20.98;41.51;100381.03;105720;1273;24111;-52
2022/07/16 09:25:32;;;;;;;;;;;;;;;21.04;41.52;100371.39;105810;1273;22539;-50
2022/07/16 09:28:00;;;;;;;;;;;;;;;21.12;41.34;100371.02;105841;1273;25296;-51
2022/07/16 09:30:29;;;;;;;;;;;;;;;21.19;41.17;100369.40;105591;1273;23046;-53
2022/07/16 09:33:10;;;;;;;;;;;;;;;21.23;40.63;100371.11;105842;1273;22524;-54
2022/07/16 09:35:38;;;;;;;;;;;;;;;21.28;40.71;100367.18;106269;1273;25382;-51
2022/07/16 09:38:09;;;;;;;;;;;;;;;21.34;40.31;100367.42;105673;1273;22546;-54
2022/07/16 09:40:37;;;;;;;;;;;;;;;21.39;40.14;100363.89;105963;1273;22540;-51
2022/07/16 09:43:18;;;;;;;;;;;;;;;21.46;40.19;100359.85;105838;1273;25401;-53
2022/07/16 09:45:48;;;;;;;;;;;;;;;21.54;40.10;100359.41;105840;1273;24442;-53
2022/07/16 09:48:20;;;;;;;;;;;;;;;21.58;40.03;100353.58;107341;1272;22554;-51
2022/07/16 09:50:49;;;;;;;;;;;;;;;21.61;39.90;100354.33;109697;1271;22484;-55
2022/07/16 09:53:17;;;;;;;;;;;;;;;21.69;39.79;100356.31;107569;1273;22516;-52
2022/07/16 09:55:56;;;;;;;;;;;;;;;21.85;38.92;100354.23;105624;1273;22556;-52
2022/07/16 09:58:25;;;;;;;;;;;;;;;21.94;38.67;100347.13;105772;1273;25226;-53
2022/07/16 10:00:53;;;;;;;;;;;;;;;21.95;38.09;100354.64;105692;1272;24327;-54
2022/07/16 10:03:21;;;;;;;;;;;;;;;21.90;37.91;100354.92;105897;1273;22560;-53
2022/07/16 10:05:49;;;;;;;;;;;;;;;21.83;37.64;100354.79;106012;1273;25175;-52
2022/07/16 10:08:17;;;;;;;;;;;;;;;21.74;37.51;100356.84;105808;1273;25501;-50
2022/07/16 10:10:46;;;;;;;;;;;;;;;21.64;37.19;100359.77;105970;1273;25331;-55
2022/07/16 10:13:15;;;;;;;;;;;;;;;21.54;37.07;100356.77;105978;1272;25281;-54
2022/07/16 10:15:44;;;;;;;;;;;;;;;21.43;37.31;100359.27;106109;1273;22532;-51
2022/07/16 10:18:29;;;;;;;;;;;;;;;21.36;37.35;100357.14;105736;1273;22683;-51
2022/07/16 10:21:02;;;;;;;;;;;;;;;21.30;37.56;100355.02;105252;1281;22695;-51
2022/07/16 10:23:31;;;;;;;;;;;;;;;21.26;37.69;100359.34;105343;1281;22689;-53
2022/07/16 10:25:59;;;;;;;;;;;;;;;21.22;37.73;100358.53;105454;1280;24460;-51
2022/07/16 10:28:38;;;;;;;;;;;;;;;21.15;38.36;100360.05;105497;1281;22527;-51
2022/07/16 10:31:23;;;;;;;;;;;;;;;21.09;38.83;100371.39;105388;1281;23204;-51
2022/07/16 10:34:18;;;;;;;;;;;;;;;21.00;39.33;100353.84;105315;1281;22531;-55
2022/07/16 10:36:47;;;;;;;;;;;;;;;21.07;39.50;100345.77;105188;1279;23090;-55
2022/07/16 10:39:17;;;;;;;;;;;;;;;21.24;39.44;100340.95;105294;1282;25604;-52
2022/07/16 10:41:49;;;;;;;;;;;;;;;21.46;38.85;100344.27;105458;1281;22556;-53
2022/07/16 10:44:17;;;;;;;;;;;;;;;21.57;38.51;100339.67;105322;1281;25228;-53
2022/07/16 10:46:55;;;;;;;;;;;;;;;21.59;38.35;100345.63;105432;1281;24365;-51
2022/07/16 10:49:23;;;;;;;;;;;;;;;21.56;38.12;100334.88;105463;1281;22527;-55
2022/07/16 10:51:55;;;;;;;;;;;;;;;21.52;38.61;100340.45;105156;1281;22639;-54
2022/07/16 10:54:24;;;;;;;;;;;;;;;21.43;38.08;100341.84;105416;1281;23142;-54
2022/07/16 10:56:54;;;;;;;;;;;;;;;21.35;38.38;100347.16;105416;1281;24439;-51
2022/07/16 10:59:23;;;;;;;;;;;;;;;21.30;38.27;100352.17;105788;1273;22508;-53
2022/07/16 11:01:52;;;;;;;;;;;;;;;21.22;38.43;100350.70;105949;1273;22696;-52
2022/07/16 11:04:27;;;;;;;;;;;;;;;21.14;38.64;100354.15;105906;1273;22533;-52
2022/07/16 11:06:56;;;;;;;;;;;;;;;21.02;38.72;100354.86;105764;1273;25362;-53
2022/07/16 11:09:28;;;;;;;;;;;;;;;20.90;39.01;100353.34;105733;1271;22795;-51
2022/07/16 11:11:58;;;;;;;;;;;;;;;20.82;39.28;100359.71;105967;1273;22576;-51
2022/07/16 11:14:30;;;;;;;;;;;;;;;20.70;39.42;100365.86;105750;1273;22742;-51
2022/07/16 11:16:57;;;;;;;;;;;;;;;20.59;39.75;100380.70;105965;1273;22620;-52
2022/07/16 11:19:25;;;;;;;;;;;;;;;20.49;41.82;100414.15;105795;1272;22625;-52
2022/07/16 11:21:54;;;;;;;;;;;;;;;20.13;44.82;100425.18;105733;1273;24387;-51
2022/07/16 11:24:22;;;;;;;;;;;;;;;19.67;46.77;100432.61;105659;1273;22541;-51
2022/07/16 11:26:51;;;;;;;;;;;;;;;19.22;48.49;100438.57;105800;1273;24360;-51
2022/07/16 11:29:20;;;;;;;;;;;;;;;18.84;50.88;100450.40;105993;1273;23420;-59
2022/07/16 11:31:48;;;;;;;;;;;;;;;18.49;51.48;100449.93;105876;1273;25530;-59
2022/07/16 11:34:18;;;;;;;;;;;;;;;18.25;52.60;100449.48;105646;1273;22547;-59
2022/07/16 11:36:48;;;;;;;;;;;;;;;18.02;54.05;100452.14;105607;1273;24313;-57
2022/07/16 11:39:20;;;;;;;;;;;;;;;17.85;55.07;100446.87;105805;1273;22775;-54
2022/07/16 11:41:49;;;;;;;;;;;;;;;17.72;55.72;100446.66;105750;1273;22536;-52
2022/07/16 11:44:18;;;;;;;;;;;;;;;17.68;56.97;100450.03;105992;1273;25045;-51
2022/07/16 11:46:47;;;;;;;;;;;;;;;17.69;57.73;100451.55;105700;1273;25531;-52
2022/07/16 11:49:22;;;;;;;;;;;;;;;17.75;58.64;100448.95;105900;1273;22522;-55
2022/07/16 11:51:51;;;;;;;;;;;;;;;17.89;59.53;100442.80;105763;1273;22973;-54
2022/07/16 11:54:20;;;;;;;;;;;;;;;18.00;59.49;100443.16;105681;1273;26580;-55
2022/07/16 11:56:48;;;;;;;;;;;;;;;18.10;59.17;100440.83;105761;1273;22554;-55
2022/07/16 11:59:18;;;;;;;;;;;;;;;18.20;59.43;100437.50;105916;1273;24504;-52
2022/07/16 12:01:46;;;;;;;;;;;;;;;18.29;59.36;100435.66;105937;1273;22553;-53
2022/07/16 12:04:14;;;;;;;;;;;;;;;18.43;59.63;100430.52;105865;1273;22519;-54
2022/07/16 12:06:47;;;;;;;;;;;;;;;18.61;59.67;100426.69;105760;1273;22543;-54
2022/07/16 12:09:29;;;;;;;;;;;;;;;18.79;59.50;100427.63;106063;1273;22630;-56
2022/07/16 12:11:59;;;;;;;;;;;;;;;18.96;58.31;100427.43;105777;1273;25301;-52
2022/07/16 12:14:41;;;;;;;;;;;;;;;19.06;57.95;100425.14;105866;1271;22561;-54
2022/07/16 12:17:18;;;;;;;;;;;;;;;19.25;57.61;100423.15;105778;1273;22636;-51
2022/07/16 12:20:01;;;;;;;;;;;;;;;19.43;57.35;100416.30;105979;1273;22596;-55
2022/07/16 12:22:43;;;;;;;;;;;;;;;19.60;56.61;100426.48;105961;1271;24260;-52
2022/07/16 12:25:16;;;;;;;;;;;;;;;19.68;55.90;100431.66;105827;1273;24953;-54
2022/07/16 12:27:47;;;;;;;;;;;;;;;19.65;55.73;100433.98;105750;1273;24195;-54
2022/07/16 12:30:16;;;;;;;;;;;;;;;19.63;55.61;100434.21;105759;1273;25653;-51
2022/07/16 12:32:47;;;;;;;;;;;;;;;19.62;55.11;100434.43;105967;1273;22625;-55
2022/07/16 12:35:29;;;;;;;;;;;;;;;19.60;54.71;100438.34;105943;1273;23056;-52
2022/07/16 12:37:56;;;;;;;;;;;;;;;19.56;54.78;100432.77;105728;1273;22553;-52
2022/07/16 12:40:25;;;;;;;;;;;;;;;19.52;54.64;100434.95;105993;1273;22962;-53
2022/07/16 12:42:53;;;;;;;;;;;;;;;19.46;54.57;100431.02;105901;1273;22661;-51